Terminal Aerodrome Forecast
Issued by NWS

Home | Current Version | Previous Version | Text Only | Print | Product List | Glossary On
Versions: 1 2 3 4 5 6 7 8 9 10 11 12 13 14 15 16
000
FTUS43 KGRR 311100
TAFJXN
TAF
KJXN 311138Z 3112/0112 23008KT P6SM BKN050
     FM311800 26009KT P6SM VCSH BKN050
     FM010200 22005KT P6SM VCSH BKN050=

USA.gov is the U.S. government's official web portal to all federal, state and local government web resources and services.